Radium Springs, New Mexico
Current Conditions -  °F | °C
As of 9:55 PM on Monday 22 Dec 2014 (Local Time) from KLRU Reporting Station
Clear Clear  
Wind Chill: 42°   Ceiling: Unl
Heat Index: 49°   Visibility: 10mi
Dew Point: 35°   Wind: 17mph
Humidity: 60%   Direction: 270°W
Pressure: 29.8"   Gusts: NA
Location:  32.5°N, 106.93°W
Report Text: KLRU 230455Z AUTO 27015KT 10SM CLR 09/02 A2980 RMK AO2 T00920018
Loading
Personal Weather Stations






























Interactive Weather Map New forecast layout! Learn more

10-Day Weather Forecast

Advertisements
Track Severe Weather on mobile